createdAt,value
2023-08-31T00:01:41.509Z,91.58
2023-08-31T00:04:12.084Z,91.64
2023-08-31T00:06:38.821Z,91.90
2023-08-31T00:09:07.154Z,92.54
2023-08-31T00:11:40.074Z,92.10
2023-08-31T00:14:07.062Z,92.58
2023-08-31T00:19:20.713Z,93.28
2023-08-31T00:21:47.454Z,93.53
2023-08-31T00:24:15.495Z,93.59
2023-08-31T00:26:43.342Z,93.61
2023-08-31T00:29:13.056Z,93.82
2023-08-31T00:31:43.634Z,93.61
2023-08-31T00:34:15.984Z,93.81
2023-08-31T00:36:42.787Z,94.13
2023-08-31T00:39:11.834Z,94.28
2023-08-31T00:41:38.616Z,94.72
2023-08-31T00:47:18.544Z,95.24
2023-08-31T00:49:45.324Z,95.03
2023-08-31T00:52:13.597Z,95.43
2023-08-31T00:54:47.295Z,95.57
2023-08-31T01:00:58.176Z,95.59
2023-08-31T01:03:51.177Z,95.59
2023-08-31T01:06:53.792Z,95.22
2023-08-31T01:12:36.082Z,95.86
2023-08-31T01:18:20.711Z,95.79
2023-08-31T01:21:15.298Z,96.18
2023-08-31T01:33:41.022Z,96.26
2023-08-31T01:44:05.021Z,96.36
2023-08-31T01:46:34.782Z,96.39
2023-08-31T02:11:53.673Z,95.61
2023-08-31T02:29:29.664Z,97.10
2023-08-31T02:32:07.075Z,97.23
2023-08-31T02:34:33.828Z,97.64
2023-08-31T02:37:06.890Z,97.48
2023-08-31T02:39:35.852Z,96.99
2023-08-31T02:42:33.930Z,97.02
2023-08-31T02:45:34.246Z,97.10
2023-08-31T03:11:26.248Z,97.46
2023-08-31T03:13:52.801Z,97.41
2023-08-31T03:16:19.367Z,97.58
2023-08-31T03:18:46.080Z,97.78
2023-08-31T03:21:18.389Z,97.68
2023-08-31T03:23:45.108Z,97.70
2023-08-31T03:26:14.277Z,98.00
2023-08-31T03:28:42.040Z,98.06
2023-08-31T03:31:08.939Z,97.92
2023-08-31T03:33:37.155Z,98.27
2023-08-31T03:51:02.178Z,97.62
2023-08-31T03:53:28.943Z,97.88
2023-08-31T03:55:55.718Z,97.84
2023-08-31T03:58:22.275Z,97.99
2023-08-31T04:00:51.943Z,98.16
2023-08-31T04:03:18.700Z,98.45
2023-08-31T04:09:35.219Z,98.87
2023-08-31T04:12:18.117Z,99.31
2023-08-31T04:14:44.877Z,99.25
2023-08-31T04:17:11.750Z,99.44
2023-08-31T04:19:38.980Z,99.19
2023-08-31T05:05:02.414Z,99.67
2023-08-31T05:15:40.774Z,99.64
2023-08-31T05:32:22.865Z,99.96
2023-08-31T05:35:41.046Z,100.00
2023-08-31T05:47:36.927Z,99.84
2023-08-31T05:50:32.968Z,99.50
2023-08-31T05:53:02.985Z,99.50
2023-08-31T06:02:08.263Z,100.00
2023-08-31T06:14:06.255Z,100.00
2023-08-31T06:16:10.406Z,99.98
2023-08-31T06:18:37.223Z,99.91
2023-08-31T06:21:34.214Z,99.96
2023-08-31T06:23:54.605Z,99.89
2023-08-31T06:26:55.005Z,100.00
2023-08-31T06:33:12.044Z,100.00
2023-08-31T06:53:45.203Z,100.00
2023-08-31T06:58:58.536Z,99.77
2023-08-31T07:01:30.943Z,99.12
2023-08-31T07:03:57.684Z,98.96
2023-08-31T07:06:24.336Z,98.54
2023-08-31T07:08:51.203Z,99.20
2023-08-31T07:11:20.896Z,99.12
2023-08-31T07:13:47.486Z,98.78
2023-08-31T07:16:14.235Z,98.89
2023-08-31T07:18:40.922Z,98.58
2023-08-31T07:21:07.831Z,98.83
2023-08-31T07:23:34.554Z,98.83
2023-08-31T07:26:01.586Z,98.34
2023-08-31T07:28:28.523Z,99.20
2023-08-31T07:32:13.748Z,98.97
2023-08-31T08:23:55.509Z,98.89
2023-08-31T08:29:22.236Z,98.49
2023-08-31T08:31:51.616Z,98.53
2023-08-31T08:34:18.204Z,98.41
2023-08-31T08:36:46.065Z,99.03
2023-08-31T08:39:12.779Z,98.76
2023-08-31T08:41:40.705Z,99.81
2023-08-31T08:44:08.554Z,99.65
2023-08-31T08:46:36.190Z,100.00
2023-08-31T08:49:07.079Z,100.00
2023-08-31T08:51:34.104Z,100.00
2023-08-31T08:54:01.729Z,100.00
2023-08-31T08:56:28.586Z,100.00
2023-08-31T08:58:55.182Z,100.00
2023-08-31T09:01:24.122Z,100.00
2023-08-31T09:03:52.076Z,100.00
2023-08-31T09:06:19.003Z,100.00
2023-08-31T09:08:45.753Z,99.33
2023-08-31T09:11:21.805Z,99.63
2023-08-31T09:13:48.795Z,98.50
2023-08-31T09:16:32.404Z,96.52
2023-08-31T09:19:01.982Z,97.10
2023-08-31T09:21:36.984Z,98.07
2023-08-31T09:24:06.454Z,98.18
2023-08-31T09:26:40.459Z,98.14
2023-08-31T09:29:08.402Z,99.07
2023-08-31T09:31:35.294Z,99.01
2023-08-31T09:34:02.488Z,98.37
2023-08-31T09:36:29.939Z,98.64
2023-08-31T09:39:00.724Z,98.31
2023-08-31T09:41:54.071Z,98.52
2023-08-31T09:44:21.771Z,99.55
2023-08-31T09:50:44.524Z,98.27
2023-08-31T09:53:18.121Z,98.47
2023-08-31T09:55:45.241Z,97.38
2023-08-31T09:58:39.794Z,96.70
2023-08-31T10:01:16.231Z,96.14
2023-08-31T10:03:52.185Z,95.94
2023-08-31T10:06:23.126Z,95.36
2023-08-31T10:08:51.357Z,93.72
2023-08-31T10:14:04.970Z,94.04
2023-08-31T10:16:35.075Z,93.00
2023-08-31T10:19:03.935Z,87.68
2023-08-31T10:26:18.855Z,88.58
2023-08-31T10:28:48.869Z,85.64
2023-08-31T10:31:20.287Z,81.61
2023-08-31T10:37:04.684Z,78.19
2023-08-31T10:40:04.594Z,79.83
2023-08-31T10:42:33.085Z,78.59
2023-08-31T10:45:08.192Z,76.66
2023-08-31T10:47:45.499Z,75.80
2023-08-31T10:50:21.413Z,75.33
2023-08-31T10:52:52.290Z,74.13
2023-08-31T10:55:19.089Z,73.58
2023-08-31T10:57:46.772Z,72.50
2023-08-31T11:00:56.460Z,71.11
2023-08-31T11:06:12.613Z,64.87
2023-08-31T11:08:39.373Z,67.08
2023-08-31T11:11:09.742Z,66.91
2023-08-31T11:14:01.186Z,67.44
2023-08-31T11:16:51.098Z,66.72
2023-08-31T11:19:37.056Z,67.73
2023-08-31T11:22:07.885Z,65.00
2023-08-31T11:25:07.389Z,64.00
2023-08-31T11:34:06.730Z,64.69
2023-08-31T11:39:19.388Z,63.48
2023-08-31T11:41:46.461Z,64.49
2023-08-31T11:44:17.661Z,62.67
2023-08-31T11:47:18.217Z,59.49
2023-08-31T11:53:41.618Z,57.47
2023-08-31T12:04:45.692Z,57.27
2023-08-31T12:07:13.455Z,55.85
2023-08-31T12:09:40.203Z,57.71
2023-08-31T12:12:26.597Z,56.44
2023-08-31T12:14:54.802Z,57.40
2023-08-31T12:17:57.166Z,58.33
2023-08-31T12:20:28.069Z,57.24
2023-08-31T12:23:12.678Z,58.57
2023-08-31T12:25:39.990Z,58.32
2023-08-31T12:28:06.766Z,57.88
2023-08-31T12:30:33.378Z,58.04
2023-08-31T12:33:26.526Z,58.89
2023-08-31T12:35:53.242Z,58.56
2023-08-31T12:38:20.900Z,60.21
2023-08-31T12:40:47.652Z,59.99
2023-08-31T12:43:14.649Z,60.14
2023-08-31T12:45:41.465Z,61.65
2023-08-31T12:48:10.959Z,60.11
2023-08-31T12:50:37.702Z,61.50
2023-08-31T12:53:04.590Z,58.59
2023-08-31T12:55:31.771Z,59.94
2023-08-31T12:57:58.932Z,59.39
2023-08-31T13:00:25.889Z,60.07
2023-08-31T13:02:53.818Z,61.51
2023-08-31T13:05:21.736Z,58.95
2023-08-31T13:07:48.516Z,58.72
2023-08-31T13:10:15.276Z,60.32
2023-08-31T13:12:41.980Z,58.10
2023-08-31T13:15:09.673Z,61.01
2023-08-31T13:17:36.594Z,59.47
2023-08-31T13:20:17.551Z,59.97
2023-08-31T13:22:44.454Z,59.53
2023-08-31T13:25:12.620Z,58.90
2023-08-31T13:27:48.566Z,60.61
2023-08-31T13:30:15.615Z,59.92
2023-08-31T13:32:42.274Z,60.66
2023-08-31T13:35:10.601Z,59.38
2023-08-31T13:37:37.456Z,61.16
2023-08-31T13:40:10.602Z,60.27
2023-08-31T13:42:39.457Z,61.16
2023-08-31T13:45:11.413Z,61.66
2023-08-31T13:47:38.941Z,60.51
2023-08-31T13:50:06.185Z,57.74
2023-08-31T13:52:32.819Z,57.87
2023-08-31T13:54:59.513Z,58.58
2023-08-31T13:57:27.252Z,58.26
2023-08-31T13:59:53.967Z,58.23
2023-08-31T14:02:20.823Z,58.02
2023-08-31T14:04:49.566Z,58.73
2023-08-31T14:07:19.274Z,59.40
2023-08-31T14:09:45.921Z,59.36
2023-08-31T14:12:12.522Z,59.92
2023-08-31T14:14:40.435Z,57.90
2023-08-31T14:17:07.121Z,57.54
2023-08-31T14:19:36.943Z,59.42
2023-08-31T14:22:04.795Z,59.04
2023-08-31T14:24:33.508Z,58.65
2023-08-31T14:27:00.185Z,58.36
2023-08-31T14:29:26.853Z,58.04
2023-08-31T14:31:55.672Z,57.55
2023-08-31T14:34:23.063Z,57.09
2023-08-31T14:36:49.725Z,56.51
2023-08-31T14:39:16.376Z,57.03
2023-08-31T14:41:44.881Z,57.78
2023-08-31T14:44:11.454Z,57.49
2023-08-31T14:46:38.107Z,58.19
2023-08-31T14:49:05.429Z,57.70
2023-08-31T14:51:32.084Z,56.53
2023-08-31T14:53:58.724Z,56.47
2023-08-31T14:56:25.387Z,56.15
2023-08-31T14:58:51.984Z,56.89
2023-08-31T15:01:18.646Z,57.84
2023-08-31T15:03:50.406Z,55.14
2023-08-31T15:06:17.328Z,57.52
2023-08-31T15:08:44.309Z,57.47
2023-08-31T15:11:13.001Z,57.86
2023-08-31T15:13:41.017Z,58.46
2023-08-31T15:16:08.158Z,55.69
2023-08-31T15:18:35.031Z,56.39
2023-08-31T15:21:02.251Z,56.07
2023-08-31T15:23:28.948Z,57.21
2023-08-31T15:26:02.108Z,57.04
2023-08-31T15:28:28.668Z,56.82
2023-08-31T15:30:55.294Z,56.60
2023-08-31T15:33:22.126Z,58.33
2023-08-31T15:35:48.763Z,57.52
2023-08-31T15:38:15.510Z,55.73
2023-08-31T15:40:49.029Z,57.43
2023-08-31T15:43:17.958Z,56.77
2023-08-31T15:45:48.135Z,57.59
2023-08-31T15:48:15.069Z,57.63
2023-08-31T15:50:43.101Z,57.63
2023-08-31T15:53:09.757Z,60.89
2023-08-31T15:55:38.744Z,59.26
2023-08-31T15:58:07.546Z,59.14
2023-08-31T16:00:35.460Z,59.72
2023-08-31T16:03:02.396Z,59.09
2023-08-31T16:05:29.176Z,57.16
2023-08-31T16:07:55.780Z,58.73
2023-08-31T16:10:22.382Z,58.97
2023-08-31T16:12:49.196Z,59.05
2023-08-31T16:15:15.885Z,59.46
2023-08-31T16:17:43.392Z,60.39
2023-08-31T16:20:12.205Z,58.96
2023-08-31T16:22:39.257Z,61.17
2023-08-31T16:25:06.541Z,60.04
2023-08-31T16:27:33.705Z,60.35
2023-08-31T16:30:00.432Z,59.92
2023-08-31T16:32:27.246Z,60.69
2023-08-31T16:34:54.672Z,59.78
2023-08-31T16:37:21.450Z,59.32
2023-08-31T16:39:48.411Z,58.17
2023-08-31T16:42:15.124Z,58.23
2023-08-31T16:44:42.018Z,60.82
2023-08-31T16:47:09.326Z,58.76
2023-08-31T16:49:36.049Z,61.15
2023-08-31T16:52:04.082Z,59.62
2023-08-31T16:54:31.498Z,61.20
2023-08-31T16:56:58.041Z,62.25
2023-08-31T16:59:24.678Z,62.62
2023-08-31T17:01:51.334Z,59.94
2023-08-31T17:04:18.003Z,61.56
2023-08-31T17:06:45.840Z,63.44
2023-08-31T17:09:12.481Z,62.82
2023-08-31T17:11:39.299Z,61.95
2023-08-31T17:14:07.258Z,62.92
2023-08-31T17:16:34.030Z,64.55
2023-08-31T17:19:00.856Z,65.09
2023-08-31T17:21:27.571Z,65.39
2023-08-31T17:23:54.248Z,66.32
2023-08-31T17:26:22.645Z,67.88
2023-08-31T17:28:49.326Z,69.19
2023-08-31T17:31:16.125Z,68.64
2023-08-31T17:33:43.576Z,70.12
2023-08-31T17:36:11.333Z,69.31
2023-08-31T17:38:40.655Z,69.56
2023-08-31T17:41:07.257Z,70.76
2023-08-31T17:43:33.953Z,70.62
2023-08-31T17:46:00.677Z,71.93
2023-08-31T17:48:28.280Z,71.67
2023-08-31T17:50:55.213Z,71.60
2023-08-31T17:53:22.683Z,73.14
2023-08-31T17:55:49.372Z,72.72
2023-08-31T17:58:16.287Z,72.08
2023-08-31T18:00:44.487Z,71.96
2023-08-31T18:03:13.726Z,73.05
2023-08-31T18:05:49.920Z,73.46
2023-08-31T18:08:17.764Z,73.11
2023-08-31T18:10:44.664Z,72.33
2023-08-31T18:13:11.353Z,73.71
2023-08-31T18:15:38.026Z,73.62
2023-08-31T18:18:05.068Z,72.67
2023-08-31T18:20:31.804Z,72.72
2023-08-31T18:22:58.529Z,73.24
2023-08-31T18:25:26.584Z,72.72
2023-08-31T18:27:53.203Z,73.27
2023-08-31T18:30:19.934Z,72.92
2023-08-31T18:32:48.769Z,73.68
2023-08-31T18:35:15.573Z,73.19
2023-08-31T18:37:42.232Z,72.91
2023-08-31T18:40:12.902Z,73.05
2023-08-31T18:42:40.997Z,73.30
2023-08-31T18:45:09.196Z,74.23
2023-08-31T18:47:36.150Z,74.41
2023-08-31T18:50:03.460Z,74.09
2023-08-31T18:52:30.188Z,74.69
2023-08-31T18:54:57.986Z,74.61
2023-08-31T18:57:24.582Z,75.34
2023-08-31T18:59:53.996Z,75.67
2023-08-31T19:02:22.455Z,75.19
2023-08-31T19:04:53.055Z,74.74
2023-08-31T19:07:19.764Z,76.05
2023-08-31T19:09:55.041Z,75.74
2023-08-31T19:12:29.451Z,77.00
2023-08-31T19:14:56.119Z,77.13
2023-08-31T19:17:22.709Z,77.12
2023-08-31T19:19:50.822Z,77.41
2023-08-31T19:22:19.072Z,77.50
2023-08-31T19:24:47.477Z,77.65
2023-08-31T19:27:14.699Z,77.78
2023-08-31T19:29:41.408Z,77.98
2023-08-31T19:32:08.616Z,78.11
2023-08-31T19:34:37.437Z,79.13
2023-08-31T19:37:04.792Z,79.58
2023-08-31T19:39:32.691Z,79.80
2023-08-31T19:42:00.014Z,80.30
2023-08-31T19:44:26.772Z,80.38
2023-08-31T19:46:58.754Z,80.43
2023-08-31T19:49:25.823Z,79.93
2023-08-31T19:51:52.519Z,79.81
2023-08-31T19:54:19.263Z,79.82
2023-08-31T19:56:45.965Z,80.22
2023-08-31T19:59:12.696Z,80.45
2023-08-31T20:01:40.538Z,81.21
2023-08-31T20:04:07.414Z,81.56
2023-08-31T20:06:34.142Z,82.18
2023-08-31T20:09:01.033Z,81.93
2023-08-31T20:11:28.829Z,81.97
2023-08-31T20:13:58.679Z,81.96
2023-08-31T20:16:26.699Z,82.11
2023-08-31T20:18:53.888Z,82.71
2023-08-31T20:21:20.710Z,83.10
2023-08-31T20:23:47.371Z,82.93
2023-08-31T20:26:14.134Z,83.44
2023-08-31T20:28:41.658Z,83.75
2023-08-31T20:31:09.374Z,84.15
2023-08-31T20:33:37.656Z,83.80
2023-08-31T20:36:09.463Z,84.31
2023-08-31T20:38:37.060Z,84.31
2023-08-31T20:41:05.208Z,84.50
2023-08-31T20:43:33.340Z,84.24
2023-08-31T20:46:08.076Z,84.80
2023-08-31T20:48:35.554Z,84.50
2023-08-31T20:51:06.191Z,84.86
2023-08-31T20:53:33.485Z,84.91
2023-08-31T20:56:08.545Z,85.03
2023-08-31T20:58:37.158Z,85.39
2023-08-31T21:01:06.499Z,84.69
2023-08-31T21:03:33.935Z,84.98
2023-08-31T21:06:00.874Z,85.17
2023-08-31T21:08:27.828Z,85.63
2023-08-31T21:10:56.251Z,85.65
2023-08-31T21:13:23.526Z,85.90
2023-08-31T21:15:50.361Z,85.82
2023-08-31T21:18:17.948Z,85.87
2023-08-31T21:20:45.828Z,86.25
2023-08-31T21:23:14.346Z,86.40
2023-08-31T21:25:44.432Z,86.51
2023-08-31T21:28:12.427Z,86.52
2023-08-31T21:30:39.906Z,86.62
2023-08-31T21:33:08.076Z,86.89
2023-08-31T21:35:37.585Z,86.66
2023-08-31T21:38:04.863Z,86.80
2023-08-31T21:40:36.783Z,86.82
2023-08-31T21:43:04.210Z,86.94
2023-08-31T21:45:39.881Z,86.92
2023-08-31T21:48:07.669Z,86.98
2023-08-31T21:50:36.844Z,86.61
2023-08-31T21:53:07.932Z,87.14
2023-08-31T21:55:35.534Z,87.10
2023-08-31T21:58:02.210Z,86.85
2023-08-31T22:00:29.302Z,86.92
2023-08-31T22:02:56.174Z,87.28
2023-08-31T22:05:26.293Z,86.95
2023-08-31T22:07:55.760Z,87.22
2023-08-31T22:10:23.343Z,86.60
2023-08-31T22:12:53.266Z,86.64
2023-08-31T22:15:21.818Z,87.37
2023-08-31T22:17:51.182Z,87.63
2023-08-31T22:20:20.815Z,87.46
2023-08-31T22:22:50.429Z,87.40
2023-08-31T22:25:17.244Z,87.27
2023-08-31T22:27:44.011Z,87.10
2023-08-31T22:30:11.351Z,87.28
2023-08-31T22:32:38.498Z,86.96
2023-08-31T22:35:07.212Z,87.27
2023-08-31T22:37:34.470Z,87.11
2023-08-31T22:40:01.092Z,87.51
2023-08-31T22:42:27.911Z,88.05
2023-08-31T22:44:54.874Z,87.92
2023-08-31T22:47:21.535Z,87.43
2023-08-31T22:49:48.219Z,87.67
2023-08-31T22:52:15.051Z,88.15
2023-08-31T22:54:41.861Z,87.68
2023-08-31T22:57:09.553Z,87.86
2023-08-31T22:59:37.746Z,88.19
2023-08-31T23:02:04.897Z,88.24
2023-08-31T23:04:31.569Z,88.43
2023-08-31T23:06:58.199Z,88.04
2023-08-31T23:09:26.045Z,88.22
2023-08-31T23:11:52.906Z,87.65
2023-08-31T23:14:20.791Z,88.15
2023-08-31T23:16:47.436Z,88.18
2023-08-31T23:19:14.074Z,88.54
2023-08-31T23:21:43.032Z,88.52
2023-08-31T23:24:10.696Z,88.42
2023-08-31T23:26:37.508Z,88.33
2023-08-31T23:29:04.891Z,88.56
2023-08-31T23:31:31.872Z,88.98
2023-08-31T23:33:59.447Z,89.18
2023-08-31T23:36:26.621Z,89.26
2023-08-31T23:38:54.003Z,88.70
2023-08-31T23:41:21.367Z,89.15
2023-08-31T23:43:48.480Z,89.33
2023-08-31T23:46:15.383Z,89.41
2023-08-31T23:48:42.011Z,89.53
2023-08-31T23:51:08.713Z,89.63
2023-08-31T23:53:35.309Z,89.46
2023-08-31T23:56:06.517Z,89.58
2023-08-31T23:58:34.073Z,90.02
